sensor_id;sensor_type;location;lat;lon;timestamp;P1;durP1;ratioP1;P2;durP2;ratioP2
46339;SDS011;47273;49.274;8.708;2023-02-03T04:30:44;5.28;;;3.08;;
46339;SDS011;47273;49.274;8.708;2023-02-03T04:33:10;5.00;;;2.95;;
46339;SDS011;47273;49.274;8.708;2023-02-03T04:35:35;6.30;;;3.42;;
46339;SDS011;47273;49.274;8.708;2023-02-03T04:38:01;4.97;;;3.10;;
46339;SDS011;47273;49.274;8.708;2023-02-03T04:40:27;6.40;;;3.50;;
46339;SDS011;47273;49.274;8.708;2023-02-03T04:42:52;6.30;;;3.30;;
46339;SDS011;47273;49.274;8.708;2023-02-03T04:45:18;9.48;;;4.00;;
46339;SDS011;47273;49.274;8.708;2023-02-03T04:47:44;7.88;;;4.07;;
46339;SDS011;47273;49.274;8.708;2023-02-03T04:50:09;7.30;;;3.72;;
46339;SDS011;47273;49.274;8.708;2023-02-03T04:52:35;8.60;;;3.70;;
46339;SDS011;47273;49.274;8.708;2023-02-03T04:55:00;7.28;;;3.25;;
46339;SDS011;47273;49.274;8.708;2023-02-03T04:57:27;9.50;;;3.67;;
46339;SDS011;47273;49.274;8.708;2023-02-03T04:59:53;6.38;;;3.25;;
46339;SDS011;47273;49.274;8.708;2023-02-03T05:02:19;5.85;;;3.50;;
46339;SDS011;47273;49.274;8.708;2023-02-03T05:04:44;6.22;;;3.35;;
46339;SDS011;47273;49.274;8.708;2023-02-03T05:07:10;6.20;;;3.47;;
46339;SDS011;47273;49.274;8.708;2023-02-03T05:09:35;8.27;;;3.30;;
46339;SDS011;47273;49.274;8.708;2023-02-03T05:12:01;7.60;;;3.80;;
46339;SDS011;47273;49.274;8.708;2023-02-03T05:14:27;10.60;;;3.65;;
46339;SDS011;47273;49.274;8.708;2023-02-03T05:16:52;8.07;;;3.53;;
46339;SDS011;47273;49.274;8.708;2023-02-03T05:19:18;6.05;;;2.95;;
46339;SDS011;47273;49.274;8.708;2023-02-03T05:21:43;7.40;;;3.00;;
46339;SDS011;47273;49.274;8.708;2023-02-03T05:24:09;6.72;;;2.80;;
46339;SDS011;47273;49.274;8.708;2023-02-03T05:26:35;4.43;;;2.90;;
46339;SDS011;47273;49.274;8.708;2023-02-03T05:29:00;7.65;;;3.58;;
46339;SDS011;47273;49.274;8.708;2023-02-03T05:31:26;7.88;;;3.00;;
46339;SDS011;47273;49.274;8.708;2023-02-03T05:33:52;8.77;;;4.47;;
46339;SDS011;47273;49.274;8.708;2023-02-03T05:36:18;7.20;;;3.60;;
46339;SDS011;47273;49.274;8.708;2023-02-03T05:38:43;7.25;;;3.28;;
46339;SDS011;47273;49.274;8.708;2023-02-03T05:41:12;6.15;;;3.08;;
46339;SDS011;47273;49.274;8.708;2023-02-03T05:43:56;7.53;;;2.90;;
46339;SDS011;47273;49.274;8.708;2023-02-03T05:46:22;7.88;;;3.88;;
46339;SDS011;47273;49.274;8.708;2023-02-03T05:48:47;8.40;;;3.38;;
46339;SDS011;47273;49.274;8.708;2023-02-03T05:51:13;8.48;;;3.65;;
46339;SDS011;47273;49.274;8.708;2023-02-03T05:53:39;12.90;;;3.05;;
46339;SDS011;47273;49.274;8.708;2023-02-03T05:56:04;12.05;;;3.90;;
46339;SDS011;47273;49.274;8.708;2023-02-03T05:58:30;5.57;;;3.00;;
46339;SDS011;47273;49.274;8.708;2023-02-03T06:00:56;10.60;;;3.80;;
46339;SDS011;47273;49.274;8.708;2023-02-03T06:03:22;5.50;;;3.03;;
46339;SDS011;47273;49.274;8.708;2023-02-03T06:05:47;7.78;;;2.92;;
46339;SDS011;47273;49.274;8.708;2023-02-03T06:08:13;6.93;;;3.30;;
46339;SDS011;47273;49.274;8.708;2023-02-03T06:10:38;7.75;;;3.00;;
46339;SDS011;47273;49.274;8.708;2023-02-03T06:13:13;5.85;;;3.03;;
46339;SDS011;47273;49.274;8.708;2023-02-03T06:15:39;6.20;;;3.33;;
46339;SDS011;47273;49.274;8.708;2023-02-03T06:18:06;5.43;;;2.97;;
46339;SDS011;47273;49.274;8.708;2023-02-03T06:20:32;7.03;;;3.38;;
46339;SDS011;47273;49.274;8.708;2023-02-03T06:22:58;11.82;;;4.40;;
46339;SDS011;47273;49.274;8.708;2023-02-03T06:25:24;8.07;;;3.42;;
46339;SDS011;47273;49.274;8.708;2023-02-03T06:27:51;5.43;;;3.30;;
46339;SDS011;47273;49.274;8.708;2023-02-03T06:30:16;6.03;;;3.28;;
46339;SDS011;47273;49.274;8.708;2023-02-03T06:32:44;13.02;;;3.63;;
46339;SDS011;47273;49.274;8.708;2023-02-03T06:35:10;8.27;;;3.63;;
46339;SDS011;47273;49.274;8.708;2023-02-03T06:37:35;7.15;;;3.92;;
46339;SDS011;47273;49.274;8.708;2023-02-03T06:40:02;6.85;;;3.33;;
46339;SDS011;47273;49.274;8.708;2023-02-03T06:42:28;8.45;;;3.25;;
46339;SDS011;47273;49.274;8.708;2023-02-03T06:44:54;7.70;;;3.42;;
46339;SDS011;47273;49.274;8.708;2023-02-03T06:47:19;9.77;;;3.72;;
46339;SDS011;47273;49.274;8.708;2023-02-03T06:49:45;9.95;;;3.67;;
46339;SDS011;47273;49.274;8.708;2023-02-03T06:52:11;7.10;;;3.92;;
46339;SDS011;47273;49.274;8.708;2023-02-03T06:54:36;7.88;;;3.45;;
46339;SDS011;47273;49.274;8.708;2023-02-03T06:57:02;7.88;;;3.50;;
46339;SDS011;47273;49.274;8.708;2023-02-03T06:59:28;6.93;;;3.45;;
46339;SDS011;47273;49.274;8.708;2023-02-03T07:01:53;5.20;;;3.10;;
46339;SDS011;47273;49.274;8.708;2023-02-03T07:04:19;9.95;;;3.38;;
46339;SDS011;47273;49.274;8.708;2023-02-03T07:06:45;9.48;;;3.33;;
46339;SDS011;47273;49.274;8.708;2023-02-03T07:09:11;7.32;;;3.83;;
46339;SDS011;47273;49.274;8.708;2023-02-03T07:11:36;9.23;;;3.78;;
46339;SDS011;47273;49.274;8.708;2023-02-03T07:14:02;11.30;;;3.35;;
46339;SDS011;47273;49.274;8.708;2023-02-03T07:16:28;9.02;;;3.40;;
46339;SDS011;47273;49.274;8.708;2023-02-03T07:18:55;6.53;;;3.35;;
46339;SDS011;47273;49.274;8.708;2023-02-03T07:21:21;7.70;;;3.88;;
46339;SDS011;47273;49.274;8.708;2023-02-03T07:23:46;5.97;;;3.75;;
46339;SDS011;47273;49.274;8.708;2023-02-03T07:26:13;9.43;;;4.28;;
46339;SDS011;47273;49.274;8.708;2023-02-03T07:28:39;7.40;;;4.00;;
46339;SDS011;47273;49.274;8.708;2023-02-03T07:31:05;5.75;;;3.38;;
46339;SDS011;47273;49.274;8.708;2023-02-03T07:33:34;6.07;;;3.85;;
46339;SDS011;47273;49.274;8.708;2023-02-03T07:36:00;9.05;;;3.55;;
46339;SDS011;47273;49.274;8.708;2023-02-03T07:38:27;7.95;;;3.45;;
46339;SDS011;47273;49.274;8.708;2023-02-03T07:40:53;6.45;;;3.72;;
46339;SDS011;47273;49.274;8.708;2023-02-03T07:43:20;7.47;;;3.58;;
46339;SDS011;47273;49.274;8.708;2023-02-03T07:45:45;5.80;;;3.40;;
46339;SDS011;47273;49.274;8.708;2023-02-03T07:48:11;5.78;;;2.75;;
46339;SDS011;47273;49.274;8.708;2023-02-03T07:50:37;6.78;;;2.88;;
46339;SDS011;47273;49.274;8.708;2023-02-03T07:53:04;8.07;;;3.05;;
46339;SDS011;47273;49.274;8.708;2023-02-03T07:55:30;10.20;;;5.15;;
46339;SDS011;47273;49.274;8.708;2023-02-03T07:57:57;7.38;;;3.47;;
46339;SDS011;47273;49.274;8.708;2023-02-03T08:00:23;9.60;;;4.38;;
46339;SDS011;47273;49.274;8.708;2023-02-03T08:02:49;6.80;;;3.28;;
46339;SDS011;47273;49.274;8.708;2023-02-03T08:05:15;10.38;;;3.90;;
46339;SDS011;47273;49.274;8.708;2023-02-03T08:07:42;7.07;;;3.35;;
46339;SDS011;47273;49.274;8.708;2023-02-03T08:10:08;7.25;;;3.72;;
46339;SDS011;47273;49.274;8.708;2023-02-03T08:12:35;9.07;;;3.10;;
46339;SDS011;47273;49.274;8.708;2023-02-03T08:15:01;8.20;;;4.20;;
46339;SDS011;47273;49.274;8.708;2023-02-03T08:17:27;8.30;;;3.95;;
46339;SDS011;47273;49.274;8.708;2023-02-03T08:19:52;10.82;;;4.75;;
46339;SDS011;47273;49.274;8.708;2023-02-03T08:22:18;8.32;;;3.65;;
46339;SDS011;47273;49.274;8.708;2023-02-03T08:24:44;7.53;;;3.42;;
46339;SDS011;47273;49.274;8.708;2023-02-03T08:27:11;5.57;;;3.10;;
46339;SDS011;47273;49.274;8.708;2023-02-03T08:29:37;7.70;;;2.95;;
46339;SDS011;47273;49.274;8.708;2023-02-03T08:32:03;8.10;;;3.30;;
46339;SDS011;47273;49.274;8.708;2023-02-03T08:34:29;7.30;;;3.45;;
46339;SDS011;47273;49.274;8.708;2023-02-03T08:36:55;7.43;;;3.38;;
46339;SDS011;47273;49.274;8.708;2023-02-03T08:39:20;5.53;;;3.10;;
46339;SDS011;47273;49.274;8.708;2023-02-03T08:41:46;11.18;;;3.15;;
46339;SDS011;47273;49.274;8.708;2023-02-03T08:44:12;5.30;;;2.95;;
46339;SDS011;47273;49.274;8.708;2023-02-03T08:46:38;7.53;;;3.60;;
46339;SDS011;47273;49.274;8.708;2023-02-03T08:49:08;5.97;;;3.17;;
46339;SDS011;47273;49.274;8.708;2023-02-03T08:51:34;5.65;;;3.30;;
46339;SDS011;47273;49.274;8.708;2023-02-03T08:54:00;7.55;;;2.83;;
46339;SDS011;47273;49.274;8.708;2023-02-03T08:56:26;8.30;;;4.47;;
46339;SDS011;47273;49.274;8.708;2023-02-03T08:58:52;6.50;;;3.55;;
46339;SDS011;47273;49.274;8.708;2023-02-03T09:01:19;7.15;;;3.00;;
46339;SDS011;47273;49.274;8.708;2023-02-03T09:03:45;7.18;;;3.00;;
46339;SDS011;47273;49.274;8.708;2023-02-03T09:06:11;8.20;;;2.97;;
46339;SDS011;47273;49.274;8.708;2023-02-03T09:08:40;6.65;;;3.22;;
46339;SDS011;47273;49.274;8.708;2023-02-03T09:11:09;9.60;;;3.78;;
46339;SDS011;47273;49.274;8.708;2023-02-03T09:13:36;5.40;;;3.20;;
46339;SDS011;47273;49.274;8.708;2023-02-03T09:16:04;7.43;;;3.17;;
46339;SDS011;47273;49.274;8.708;2023-02-03T09:18:31;8.55;;;3.40;;
46339;SDS011;47273;49.274;8.708;2023-02-03T09:21:00;12.75;;;3.47;;
46339;SDS011;47273;49.274;8.708;2023-02-03T09:23:28;5.28;;;3.20;;
46339;SDS011;47273;49.274;8.708;2023-02-03T09:25:54;9.07;;;3.05;;
46339;SDS011;47273;49.274;8.708;2023-02-03T09:28:20;7.13;;;3.70;;
46339;SDS011;47273;49.274;8.708;2023-02-03T09:30:46;9.15;;;3.28;;
46339;SDS011;47273;49.274;8.708;2023-02-03T09:33:12;9.70;;;3.25;;
46339;SDS011;47273;49.274;8.708;2023-02-03T09:35:37;7.65;;;3.55;;
46339;SDS011;47273;49.274;8.708;2023-02-03T09:38:04;5.20;;;2.90;;
46339;SDS011;47273;49.274;8.708;2023-02-03T09:40:32;6.78;;;3.40;;
46339;SDS011;47273;49.274;8.708;2023-02-03T09:45:27;7.22;;;3.25;;
46339;SDS011;47273;49.274;8.708;2023-02-03T09:47:56;6.70;;;3.35;;
46339;SDS011;47273;49.274;8.708;2023-02-03T09:50:30;7.88;;;3.03;;
46339;SDS011;47273;49.274;8.708;2023-02-03T09:52:58;12.77;;;2.90;;
46339;SDS011;47273;49.274;8.708;2023-02-03T09:55:34;6.90;;;3.53;;
46339;SDS011;47273;49.274;8.708;2023-02-03T09:58:07;9.15;;;3.00;;
46339;SDS011;47273;49.274;8.708;2023-02-03T10:03:13;8.20;;;3.95;;
46339;SDS011;47273;49.274;8.708;2023-02-03T10:08:51;8.32;;;3.35;;
46339;SDS011;47273;49.274;8.708;2023-02-03T10:22:12;6.22;;;3.25;;
46339;SDS011;47273;49.274;8.708;2023-02-03T10:24:44;7.68;;;2.70;;
46339;SDS011;47273;49.274;8.708;2023-02-03T10:27:20;7.60;;;3.45;;
46339;SDS011;47273;49.274;8.708;2023-02-03T10:29:50;7.50;;;2.60;;
46339;SDS011;47273;49.274;8.708;2023-02-03T10:32:30;7.95;;;2.92;;
46339;SDS011;47273;49.274;8.708;2023-02-03T10:34:56;11.05;;;3.53;;
46339;SDS011;47273;49.274;8.708;2023-02-03T10:37:36;6.63;;;2.45;;
46339;SDS011;47273;49.274;8.708;2023-02-03T10:40:13;8.68;;;3.30;;
46339;SDS011;47273;49.274;8.708;2023-02-03T10:42:40;5.38;;;2.85;;
46339;SDS011;47273;49.274;8.708;2023-02-03T10:45:27;7.43;;;2.33;;
46339;SDS011;47273;49.274;8.708;2023-02-03T10:47:54;10.35;;;3.30;;
46339;SDS011;47273;49.274;8.708;2023-02-03T10:50:24;9.88;;;3.70;;
46339;SDS011;47273;49.274;8.708;2023-02-03T10:55:42;5.70;;;3.20;;
46339;SDS011;47273;49.274;8.708;2023-02-03T10:58:13;6.90;;;2.85;;
46339;SDS011;47273;49.274;8.708;2023-02-03T11:00:53;8.45;;;2.92;;
46339;SDS011;47273;49.274;8.708;2023-02-03T11:03:29;5.65;;;3.00;;
46339;SDS011;47273;49.274;8.708;2023-02-03T11:08:38;8.23;;;2.60;;
46339;SDS011;47273;49.274;8.708;2023-02-03T11:11:08;6.20;;;2.60;;
46339;SDS011;47273;49.274;8.708;2023-02-03T11:13:37;3.92;;;2.55;;
46339;SDS011;47273;49.274;8.708;2023-02-03T11:16:04;5.57;;;3.05;;
46339;SDS011;47273;49.274;8.708;2023-02-03T11:23:59;5.45;;;2.70;;
46339;SDS011;47273;49.274;8.708;2023-02-03T11:26:27;2.90;;;1.75;;
46339;SDS011;47273;49.274;8.708;2023-02-03T11:28:57;7.13;;;2.53;;
46339;SDS011;47273;49.274;8.708;2023-02-03T11:31:28;5.57;;;2.35;;
46339;SDS011;47273;49.274;8.708;2023-02-03T11:33:57;4.47;;;2.55;;
46339;SDS011;47273;49.274;8.708;2023-02-03T11:36:27;3.95;;;2.47;;
46339;SDS011;47273;49.274;8.708;2023-02-03T11:39:08;6.30;;;2.40;;
46339;SDS011;47273;49.274;8.708;2023-02-03T11:41:39;5.25;;;3.15;;
46339;SDS011;47273;49.274;8.708;2023-02-03T11:44:14;5.90;;;2.83;;
46339;SDS011;47273;49.274;8.708;2023-02-03T11:46:48;4.93;;;2.70;;
46339;SDS011;47273;49.274;8.708;2023-02-03T11:49:23;5.07;;;2.60;;
46339;SDS011;47273;49.274;8.708;2023-02-03T11:52:06;4.18;;;2.47;;
46339;SDS011;47273;49.274;8.708;2023-02-03T11:54:49;4.07;;;2.45;;
46339;SDS011;47273;49.274;8.708;2023-02-03T11:57:23;6.38;;;2.20;;
46339;SDS011;47273;49.274;8.708;2023-02-03T12:00:21;3.65;;;1.95;;
46339;SDS011;47273;49.274;8.708;2023-02-03T12:11:33;5.25;;;2.42;;
46339;SDS011;47273;49.274;8.708;2023-02-03T12:14:37;3.58;;;1.95;;
46339;SDS011;47273;49.274;8.708;2023-02-03T12:20:00;6.82;;;3.20;;
46339;SDS011;47273;49.274;8.708;2023-02-03T12:31:41;5.30;;;2.67;;
46339;SDS011;47273;49.274;8.708;2023-02-03T12:37:26;4.82;;;2.35;;
46339;SDS011;47273;49.274;8.708;2023-02-03T12:39:59;4.27;;;2.67;;
46339;SDS011;47273;49.274;8.708;2023-02-03T12:42:46;4.63;;;2.20;;
46339;SDS011;47273;49.274;8.708;2023-02-03T12:45:25;3.67;;;1.90;;
46339;SDS011;47273;49.274;8.708;2023-02-03T12:47:55;5.10;;;2.17;;
46339;SDS011;47273;49.274;8.708;2023-02-03T12:50:33;3.58;;;1.90;;
46339;SDS011;47273;49.274;8.708;2023-02-03T12:53:02;3.47;;;2.25;;
46339;SDS011;47273;49.274;8.708;2023-02-03T12:55:54;3.20;;;2.00;;
46339;SDS011;47273;49.274;8.708;2023-02-03T12:58:27;6.75;;;2.08;;
46339;SDS011;47273;49.274;8.708;2023-02-03T13:01:07;3.45;;;1.92;;
46339;SDS011;47273;49.274;8.708;2023-02-03T13:03:51;3.08;;;1.90;;
46339;SDS011;47273;49.274;8.708;2023-02-03T13:11:55;3.75;;;2.15;;
46339;SDS011;47273;49.274;8.708;2023-02-03T13:14:40;5.45;;;2.22;;
46339;SDS011;47273;49.274;8.708;2023-02-03T13:17:14;4.07;;;2.00;;
46339;SDS011;47273;49.274;8.708;2023-02-03T13:19:51;3.13;;;1.70;;
46339;SDS011;47273;49.274;8.708;2023-02-03T13:22:20;4.43;;;2.22;;
46339;SDS011;47273;49.274;8.708;2023-02-03T13:33:25;3.17;;;2.05;;
46339;SDS011;47273;49.274;8.708;2023-02-03T13:44:42;3.50;;;2.20;;
46339;SDS011;47273;49.274;8.708;2023-02-03T13:47:18;3.78;;;2.00;;
46339;SDS011;47273;49.274;8.708;2023-02-03T13:50:02;3.05;;;2.35;;
46339;SDS011;47273;49.274;8.708;2023-02-03T13:55:18;2.80;;;1.95;;
46339;SDS011;47273;49.274;8.708;2023-02-03T13:57:54;2.20;;;1.70;;
46339;SDS011;47273;49.274;8.708;2023-02-03T14:01:05;2.13;;;1.75;;
46339;SDS011;47273;49.274;8.708;2023-02-03T14:05:48;2.92;;;1.95;;
46339;SDS011;47273;49.274;8.708;2023-02-03T14:08:58;2.60;;;1.85;;
46339;SDS011;47273;49.274;8.708;2023-02-03T14:16:35;5.90;;;2.30;;
46339;SDS011;47273;49.274;8.708;2023-02-03T14:19:07;2.55;;;1.77;;
46339;SDS011;47273;49.274;8.708;2023-02-03T14:24:44;3.20;;;2.10;;
46339;SDS011;47273;49.274;8.708;2023-02-03T14:27:16;4.88;;;2.00;;
46339;SDS011;47273;49.274;8.708;2023-02-03T14:32:56;4.10;;;2.20;;
46339;SDS011;47273;49.274;8.708;2023-02-03T14:35:33;4.22;;;2.60;;
46339;SDS011;47273;49.274;8.708;2023-02-03T14:38:02;4.85;;;1.95;;
46339;SDS011;47273;49.274;8.708;2023-02-03T14:54:03;1.98;;;1.52;;
46339;SDS011;47273;49.274;8.708;2023-02-03T14:59:40;2.22;;;1.50;;
46339;SDS011;47273;49.274;8.708;2023-02-03T15:02:14;2.50;;;1.90;;
46339;SDS011;47273;49.274;8.708;2023-02-03T15:04:43;3.00;;;1.90;;
46339;SDS011;47273;49.274;8.708;2023-02-03T15:10:01;2.83;;;1.50;;
46339;SDS011;47273;49.274;8.708;2023-02-03T15:12:33;2.17;;;1.80;;
46339;SDS011;47273;49.274;8.708;2023-02-03T15:17:45;2.67;;;1.70;;
46339;SDS011;47273;49.274;8.708;2023-02-03T15:22:55;3.95;;;1.90;;
46339;SDS011;47273;49.274;8.708;2023-02-03T15:25:21;3.47;;;1.88;;
46339;SDS011;47273;49.274;8.708;2023-02-03T15:27:49;3.70;;;1.98;;
46339;SDS011;47273;49.274;8.708;2023-02-03T15:35:48;3.03;;;1.90;;
46339;SDS011;47273;49.274;8.708;2023-02-03T15:38:23;2.50;;;1.63;;
46339;SDS011;47273;49.274;8.708;2023-02-03T15:40:53;2.80;;;1.75;;
46339;SDS011;47273;49.274;8.708;2023-02-03T15:43:30;3.45;;;1.80;;
46339;SDS011;47273;49.274;8.708;2023-02-03T15:46:17;3.20;;;2.10;;
46339;SDS011;47273;49.274;8.708;2023-02-03T15:49:07;5.10;;;2.17;;
46339;SDS011;47273;49.274;8.708;2023-02-03T15:54:21;3.38;;;2.30;;
46339;SDS011;47273;49.274;8.708;2023-02-03T15:57:08;4.90;;;2.03;;
46339;SDS011;47273;49.274;8.708;2023-02-03T15:59:40;3.33;;;2.17;;
46339;SDS011;47273;49.274;8.708;2023-02-03T16:04:39;2.42;;;2.10;;
46339;SDS011;47273;49.274;8.708;2023-02-03T16:07:05;3.85;;;2.70;;
46339;SDS011;47273;49.274;8.708;2023-02-03T16:09:31;6.72;;;3.17;;
46339;SDS011;47273;49.274;8.708;2023-02-03T16:12:12;5.80;;;2.70;;
46339;SDS011;47273;49.274;8.708;2023-02-03T16:14:41;7.15;;;2.80;;
46339;SDS011;47273;49.274;8.708;2023-02-03T16:17:40;4.13;;;2.38;;
46339;SDS011;47273;49.274;8.708;2023-02-03T16:22:42;3.87;;;2.10;;
46339;SDS011;47273;49.274;8.708;2023-02-03T16:27:45;5.75;;;2.20;;
46339;SDS011;47273;49.274;8.708;2023-02-03T16:30:50;7.60;;;2.53;;
46339;SDS011;47273;49.274;8.708;2023-02-03T16:33:36;5.40;;;2.67;;
46339;SDS011;47273;49.274;8.708;2023-02-03T16:36:20;5.72;;;3.05;;
46339;SDS011;47273;49.274;8.708;2023-02-03T16:39:07;5.85;;;2.88;;
46339;SDS011;47273;49.274;8.708;2023-02-03T16:41:54;6.38;;;3.13;;
46339;SDS011;47273;49.274;8.708;2023-02-03T16:44:40;6.70;;;2.97;;
46339;SDS011;47273;49.274;8.708;2023-02-03T16:50:16;6.72;;;2.65;;
46339;SDS011;47273;49.274;8.708;2023-02-03T16:53:02;3.22;;;1.98;;
46339;SDS011;47273;49.274;8.708;2023-02-03T16:55:28;2.72;;;1.92;;
46339;SDS011;47273;49.274;8.708;2023-02-03T16:57:54;2.90;;;2.33;;
46339;SDS011;47273;49.274;8.708;2023-02-03T17:00:20;3.42;;;2.22;;
46339;SDS011;47273;49.274;8.708;2023-02-03T17:02:47;2.72;;;1.98;;
46339;SDS011;47273;49.274;8.708;2023-02-03T17:05:14;6.13;;;2.60;;
46339;SDS011;47273;49.274;8.708;2023-02-03T17:07:40;3.88;;;2.20;;
46339;SDS011;47273;49.274;8.708;2023-02-03T17:10:06;3.95;;;2.13;;
46339;SDS011;47273;49.274;8.708;2023-02-03T17:12:32;3.53;;;2.20;;
46339;SDS011;47273;49.274;8.708;2023-02-03T17:14:58;4.05;;;2.38;;
46339;SDS011;47273;49.274;8.708;2023-02-03T17:17:24;3.53;;;2.13;;
46339;SDS011;47273;49.274;8.708;2023-02-03T17:19:49;8.40;;;2.70;;
46339;SDS011;47273;49.274;8.708;2023-02-03T17:22:15;3.97;;;2.10;;
46339;SDS011;47273;49.274;8.708;2023-02-03T17:24:41;3.75;;;2.00;;
46339;SDS011;47273;49.274;8.708;2023-02-03T17:27:06;2.42;;;1.58;;
46339;SDS011;47273;49.274;8.708;2023-02-03T17:29:32;2.08;;;1.50;;
46339;SDS011;47273;49.274;8.708;2023-02-03T17:31:58;3.70;;;1.73;;
46339;SDS011;47273;49.274;8.708;2023-02-03T17:34:23;3.60;;;2.03;;
46339;SDS011;47273;49.274;8.708;2023-02-03T17:36:49;3.85;;;1.98;;
46339;SDS011;47273;49.274;8.708;2023-02-03T17:39:14;3.15;;;2.13;;
46339;SDS011;47273;49.274;8.708;2023-02-03T17:41:40;5.47;;;2.35;;
46339;SDS011;47273;49.274;8.708;2023-02-03T17:44:06;2.88;;;1.90;;
46339;SDS011;47273;49.274;8.708;2023-02-03T17:46:32;4.43;;;2.10;;
46339;SDS011;47273;49.274;8.708;2023-02-03T17:48:57;2.80;;;2.00;;
46339;SDS011;47273;49.274;8.708;2023-02-03T17:51:23;3.95;;;2.10;;
46339;SDS011;47273;49.274;8.708;2023-02-03T17:53:55;2.90;;;1.90;;
46339;SDS011;47273;49.274;8.708;2023-02-03T17:56:23;3.38;;;1.73;;
46339;SDS011;47273;49.274;8.708;2023-02-03T17:58:56;2.97;;;1.95;;
46339;SDS011;47273;49.274;8.708;2023-02-03T18:01:24;3.35;;;1.88;;
46339;SDS011;47273;49.274;8.708;2023-02-03T18:03:51;3.55;;;1.80;;
46339;SDS011;47273;49.274;8.708;2023-02-03T18:06:21;3.60;;;1.80;;
46339;SDS011;47273;49.274;8.708;2023-02-03T18:08:48;2.55;;;1.67;;
46339;SDS011;47273;49.274;8.708;2023-02-03T18:11:15;3.17;;;1.80;;
46339;SDS011;47273;49.274;8.708;2023-02-03T18:13:41;3.70;;;1.83;;
46339;SDS011;47273;49.274;8.708;2023-02-03T18:16:15;2.83;;;1.98;;
46339;SDS011;47273;49.274;8.708;2023-02-03T18:18:50;3.17;;;2.08;;
46339;SDS011;47273;49.274;8.708;2023-02-03T18:21:17;4.47;;;2.10;;
46339;SDS011;47273;49.274;8.708;2023-02-03T18:23:45;3.95;;;2.00;;
46339;SDS011;47273;49.274;8.708;2023-02-03T18:26:12;3.75;;;2.13;;
46339;SDS011;47273;49.274;8.708;2023-02-03T18:28:38;3.78;;;2.00;;
46339;SDS011;47273;49.274;8.708;2023-02-03T18:31:08;4.68;;;2.63;;
46339;SDS011;47273;49.274;8.708;2023-02-03T18:33:39;3.92;;;2.20;;
46339;SDS011;47273;49.274;8.708;2023-02-03T18:36:06;4.03;;;2.30;;
46339;SDS011;47273;49.274;8.708;2023-02-03T18:38:32;5.55;;;2.35;;
46339;SDS011;47273;49.274;8.708;2023-02-03T18:41:08;3.63;;;1.95;;
46339;SDS011;47273;49.274;8.708;2023-02-03T18:43:38;4.13;;;2.33;;
46339;SDS011;47273;49.274;8.708;2023-02-03T18:46:07;5.03;;;2.35;;
46339;SDS011;47273;49.274;8.708;2023-02-03T18:48:34;3.67;;;1.95;;
46339;SDS011;47273;49.274;8.708;2023-02-03T18:51:00;4.70;;;2.28;;
46339;SDS011;47273;49.274;8.708;2023-02-03T18:53:27;4.82;;;2.30;;
46339;SDS011;47273;49.274;8.708;2023-02-03T18:55:53;5.43;;;2.40;;
46339;SDS011;47273;49.274;8.708;2023-02-03T18:58:19;4.72;;;2.13;;
46339;SDS011;47273;49.274;8.708;2023-02-03T19:00:45;6.18;;;2.10;;
46339;SDS011;47273;49.274;8.708;2023-02-03T19:03:11;4.20;;;2.20;;
46339;SDS011;47273;49.274;8.708;2023-02-03T19:05:39;4.15;;;2.30;;
46339;SDS011;47273;49.274;8.708;2023-02-03T19:08:05;5.70;;;2.50;;
46339;SDS011;47273;49.274;8.708;2023-02-03T19:10:31;4.28;;;2.25;;
46339;SDS011;47273;49.274;8.708;2023-02-03T19:12:57;4.80;;;2.20;;
46339;SDS011;47273;49.274;8.708;2023-02-03T19:15:23;7.10;;;2.60;;
46339;SDS011;47273;49.274;8.708;2023-02-03T19:17:49;4.97;;;2.33;;
46339;SDS011;47273;49.274;8.708;2023-02-03T19:20:14;5.65;;;1.88;;
46339;SDS011;47273;49.274;8.708;2023-02-03T19:22:40;5.88;;;2.15;;
46339;SDS011;47273;49.274;8.708;2023-02-03T19:25:06;4.05;;;1.85;;
46339;SDS011;47273;49.274;8.708;2023-02-03T19:27:32;5.90;;;2.33;;
46339;SDS011;47273;49.274;8.708;2023-02-03T19:29:57;3.35;;;1.92;;
46339;SDS011;47273;49.274;8.708;2023-02-03T19:32:23;3.97;;;2.20;;
46339;SDS011;47273;49.274;8.708;2023-02-03T19:34:49;4.15;;;2.33;;
46339;SDS011;47273;49.274;8.708;2023-02-03T19:37:14;3.83;;;2.08;;
46339;SDS011;47273;49.274;8.708;2023-02-03T19:39:40;4.15;;;2.30;;
46339;SDS011;47273;49.274;8.708;2023-02-03T19:42:06;9.98;;;2.40;;
46339;SDS011;47273;49.274;8.708;2023-02-03T19:44:32;4.50;;;2.03;;
46339;SDS011;47273;49.274;8.708;2023-02-03T19:46:58;4.15;;;2.00;;
46339;SDS011;47273;49.274;8.708;2023-02-03T19:49:23;6.50;;;2.58;;
46339;SDS011;47273;49.274;8.708;2023-02-03T19:51:49;3.70;;;2.30;;
46339;SDS011;47273;49.274;8.708;2023-02-03T19:54:15;5.32;;;2.33;;
46339;SDS011;47273;49.274;8.708;2023-02-03T19:56:42;8.25;;;3.03;;
46339;SDS011;47273;49.274;8.708;2023-02-03T19:59:08;7.43;;;2.70;;
46339;SDS011;47273;49.274;8.708;2023-02-03T20:01:34;3.70;;;2.13;;
46339;SDS011;47273;49.274;8.708;2023-02-03T20:04:00;6.95;;;3.10;;
46339;SDS011;47273;49.274;8.708;2023-02-03T20:06:26;3.75;;;2.38;;
46339;SDS011;47273;49.274;8.708;2023-02-03T20:08:52;4.93;;;2.60;;
46339;SDS011;47273;49.274;8.708;2023-02-03T20:11:20;3.47;;;2.33;;
46339;SDS011;47273;49.274;8.708;2023-02-03T20:13:46;7.13;;;2.60;;
46339;SDS011;47273;49.274;8.708;2023-02-03T20:16:12;3.88;;;2.47;;
46339;SDS011;47273;49.274;8.708;2023-02-03T20:18:38;4.43;;;2.40;;
46339;SDS011;47273;49.274;8.708;2023-02-03T20:21:04;5.00;;;2.78;;
46339;SDS011;47273;49.274;8.708;2023-02-03T20:23:30;6.78;;;2.70;;
46339;SDS011;47273;49.274;8.708;2023-02-03T20:25:56;4.50;;;2.55;;
46339;SDS011;47273;49.274;8.708;2023-02-03T20:28:22;4.82;;;2.90;;
46339;SDS011;47273;49.274;8.708;2023-02-03T20:30:54;3.75;;;2.22;;
46339;SDS011;47273;49.274;8.708;2023-02-03T20:33:22;5.90;;;2.80;;
46339;SDS011;47273;49.274;8.708;2023-02-03T20:35:48;4.97;;;2.78;;
46339;SDS011;47273;49.274;8.708;2023-02-03T20:38:14;4.43;;;2.40;;
46339;SDS011;47273;49.274;8.708;2023-02-03T20:40:40;5.70;;;2.25;;
46339;SDS011;47273;49.274;8.708;2023-02-03T20:43:20;4.80;;;2.65;;
46339;SDS011;47273;49.274;8.708;2023-02-03T20:45:47;4.93;;;2.55;;
46339;SDS011;47273;49.274;8.708;2023-02-03T20:48:13;4.32;;;2.47;;
46339;SDS011;47273;49.274;8.708;2023-02-03T21:19:29;4.75;;;2.70;;
46339;SDS011;47273;49.274;8.708;2023-02-03T21:21:57;5.82;;;3.17;;
46339;SDS011;47273;49.274;8.708;2023-02-03T21:24:31;4.90;;;2.70;;
46339;SDS011;47273;49.274;8.708;2023-02-03T21:27:00;9.18;;;3.40;;
46339;SDS011;47273;49.274;8.708;2023-02-03T21:29:33;5.13;;;2.55;;
46339;SDS011;47273;49.274;8.708;2023-02-03T21:32:01;6.32;;;3.00;;
46339;SDS011;47273;49.274;8.708;2023-02-03T21:34:31;5.40;;;3.42;;
46339;SDS011;47273;49.274;8.708;2023-02-03T21:37:46;4.80;;;2.83;;
46339;SDS011;47273;49.274;8.708;2023-02-03T21:39:47;5.50;;;3.20;;
46339;SDS011;47273;49.274;8.708;2023-02-03T21:47:44;6.05;;;3.53;;
46339;SDS011;47273;49.274;8.708;2023-02-03T21:55:36;7.68;;;4.05;;
46339;SDS011;47273;49.274;8.708;2023-02-03T21:58:16;7.65;;;3.83;;
46339;SDS011;47273;49.274;8.708;2023-02-03T22:00:58;8.80;;;4.80;;
46339;SDS011;47273;49.274;8.708;2023-02-03T22:03:30;8.77;;;3.38;;
46339;SDS011;47273;49.274;8.708;2023-02-03T22:08:44;4.90;;;2.92;;
46339;SDS011;47273;49.274;8.708;2023-02-03T22:11:12;7.47;;;3.78;;
46339;SDS011;47273;49.274;8.708;2023-02-03T22:13:39;7.82;;;3.38;;
46339;SDS011;47273;49.274;8.708;2023-02-03T22:16:06;6.90;;;3.50;;
46339;SDS011;47273;49.274;8.708;2023-02-03T22:18:32;6.72;;;3.13;;
46339;SDS011;47273;49.274;8.708;2023-02-03T22:20:57;8.02;;;3.58;;
46339;SDS011;47273;49.274;8.708;2023-02-03T22:23:23;6.18;;;3.40;;
46339;SDS011;47273;49.274;8.708;2023-02-03T22:25:49;6.60;;;3.22;;
46339;SDS011;47273;49.274;8.708;2023-02-03T22:28:14;6.95;;;3.40;;
46339;SDS011;47273;49.274;8.708;2023-02-03T22:30:40;7.35;;;3.22;;